createdAt,value
2018-04-20T03:24:39.531Z,19.69
2018-04-20T03:25:21.925Z,19.74
2018-04-20T03:26:04.380Z,19.68
2018-04-20T03:26:46.766Z,19.65
2018-04-20T03:27:29.141Z,19.71
2018-04-20T03:28:11.519Z,19.78
2018-04-20T03:28:53.930Z,19.74
2018-04-20T03:29:36.318Z,19.73
2018-04-20T03:30:18.757Z,19.66
2018-04-20T03:31:01.162Z,19.74
2018-04-20T03:31:43.530Z,19.8
2018-04-20T03:32:25.936Z,19.74
2018-04-20T03:33:08.314Z,19.69
2018-04-20T03:33:50.753Z,19.74
2018-04-20T03:34:33.159Z,19.74
2018-04-20T03:35:15.555Z,19.77
2018-04-20T03:35:57.949Z,19.76
2018-04-20T03:36:40.310Z,19.73
2018-04-20T03:38:18.230Z,19.76
2018-04-20T03:38:58.751Z,19.76
2018-04-20T03:39:39.267Z,19.77
2018-04-20T03:40:19.787Z,19.74
2018-04-20T03:41:00.303Z,19.73
2018-04-20T03:41:40.842Z,19.76
2018-04-20T03:42:21.369Z,19.74
2018-04-20T03:43:01.888Z,19.77
2018-04-20T03:43:42.401Z,19.69
2018-04-20T03:44:22.927Z,19.73
2018-04-20T03:45:03.458Z,19.68
2018-04-20T03:45:43.975Z,19.73
2018-04-20T03:46:24.491Z,19.71
2018-04-20T03:47:05.026Z,19.71
2018-04-20T03:47:45.529Z,19.62
2018-04-20T03:48:26.106Z,19.66
2018-04-20T03:49:06.608Z,19.58
2018-04-20T03:49:47.078Z,19.63
2018-04-20T03:50:27.603Z,19.54
2018-04-20T03:51:08.117Z,19.68
2018-04-20T03:51:48.637Z,19.69
2018-04-20T03:52:29.138Z,19.63
2018-04-20T03:53:09.665Z,19.56
2018-04-20T03:53:50.129Z,19.61
2018-04-20T03:54:30.623Z,19.62
2018-04-20T03:55:11.104Z,19.55
2018-04-20T03:55:51.623Z,19.56
2018-04-20T03:56:32.134Z,19.51
2018-04-20T03:57:12.652Z,19.62
2018-04-20T03:57:53.170Z,19.63
2018-04-20T03:58:33.641Z,19.59
2018-04-20T03:59:14.174Z,19.54
2018-04-20T03:59:54.664Z,19.54
2018-04-20T04:00:35.128Z,19.5
2018-04-20T04:01:15.607Z,19.5
2018-04-20T04:01:56.135Z,19.51
2018-04-20T04:02:36.611Z,19.66
2018-04-20T04:03:17.074Z,19.62
2018-04-20T04:03:57.566Z,19.55
2018-04-20T04:04:38.020Z,19.58
2018-04-20T04:05:18.511Z,19.54
2018-04-20T04:05:59.163Z,19.54
2018-04-20T04:06:39.628Z,19.51
2018-04-20T04:07:20.154Z,19.48
2018-04-20T04:08:00.648Z,19.46
2018-04-20T04:08:41.165Z,19.41
2018-04-20T04:09:21.700Z,19.51
2018-04-20T04:10:02.188Z,19.58
2018-04-20T04:10:42.656Z,19.66
2018-04-20T04:11:23.118Z,19.61
2018-04-20T04:12:03.627Z,19.65
2018-04-20T04:12:44.167Z,19.63
2018-04-20T04:13:24.723Z,19.63
2018-04-20T04:14:05.199Z,19.55
2018-04-20T04:14:45.716Z,19.59
2018-04-20T04:15:26.194Z,19.56
2018-04-20T04:16:06.714Z,19.59
2018-04-20T04:16:47.228Z,19.65
2018-04-20T04:17:27.731Z,19.62
2018-04-20T04:18:08.232Z,19.59
2018-04-20T04:18:48.717Z,19.66
2018-04-20T04:19:29.241Z,19.58
2018-04-20T04:20:09.717Z,19.54
2018-04-20T04:20:50.257Z,19.63
2018-04-20T04:21:30.714Z,19.55
2018-04-20T04:22:11.195Z,19.51
2018-04-20T04:22:51.683Z,19.51
2018-04-20T04:23:32.191Z,19.54
2018-04-20T04:24:12.654Z,19.58
2018-04-20T04:24:53.180Z,19.44
2018-04-20T04:25:34.521Z,19.4
2018-04-20T04:26:15.019Z,19.33
2018-04-20T04:26:55.526Z,19.4
2018-04-20T04:27:36.052Z,19.4
2018-04-20T04:28:16.569Z,19.19
2018-04-20T04:28:57.098Z,19.33
2018-04-20T04:29:37.609Z,19.31
2018-04-20T04:30:18.145Z,19.37
2018-04-20T04:30:58.676Z,19.39
2018-04-20T04:31:39.188Z,19.32
2018-04-20T04:32:19.702Z,19.28
2018-04-20T04:33:00.192Z,19.18
2018-04-20T04:33:40.729Z,19.13
2018-04-20T04:34:21.190Z,19.23
2018-04-20T04:35:01.672Z,19.21
2018-04-20T04:35:42.133Z,19.16
2018-04-20T04:36:22.647Z,19.08
2018-04-20T04:37:03.185Z,18.98
2018-04-20T04:37:43.708Z,18.92
2018-04-20T04:38:24.234Z,18.99
2018-04-20T04:39:04.751Z,18.92
2018-04-20T04:39:45.266Z,18.94
2018-04-20T04:40:25.855Z,18.94
2018-04-20T04:41:06.302Z,19
2018-04-20T04:41:46.813Z,19.04
2018-04-20T04:42:27.321Z,19.04
2018-04-20T04:43:07.842Z,19.02
2018-04-20T04:43:48.351Z,18.95
2018-04-20T04:44:28.827Z,18.95
2018-04-20T04:45:09.322Z,19
2018-04-20T04:45:49.776Z,19.06
2018-04-20T04:46:30.285Z,19.08
2018-04-20T04:47:10.819Z,18.95
2018-04-20T04:47:51.333Z,18.99
2018-04-20T04:48:31.776Z,18.81
2018-04-20T04:49:12.248Z,19.02
2018-04-20T04:49:52.831Z,19.07
2018-04-20T04:50:33.270Z,18.95
2018-04-20T04:51:13.807Z,19
2018-04-20T04:51:54.389Z,19.02
2018-04-20T04:52:34.862Z,18.99
2018-04-20T04:53:15.319Z,19.04
2018-04-20T04:53:55.842Z,19.1
2018-04-20T04:54:36.354Z,19.07
2018-04-20T04:55:16.848Z,18.9
2018-04-20T04:55:57.286Z,18.98
2018-04-20T04:56:37.853Z,19.07
2018-04-20T04:57:18.309Z,19.06
2018-04-20T04:57:58.829Z,19.02
2018-04-20T04:58:39.378Z,19.02
2018-04-20T04:59:20.010Z,19.04
2018-04-20T05:00:00.522Z,18.99
2018-04-20T05:00:41.055Z,19.08
2018-04-20T05:01:21.545Z,19.08
2018-04-20T05:02:02.055Z,19.02
2018-04-20T05:02:42.555Z,18.98
2018-04-20T05:03:22.998Z,18.99
2018-04-20T05:04:03.513Z,18.99
2018-04-20T05:04:44.020Z,19.06
2018-04-20T05:05:24.507Z,19.04
2018-04-20T05:06:05.007Z,18.94
2018-04-20T05:06:45.499Z,19.07
2018-04-20T05:07:26.018Z,19.02
2018-04-20T05:08:06.509Z,19
2018-04-20T05:08:46.981Z,19.02
2018-04-20T05:09:27.535Z,19.02
2018-04-20T05:10:08.019Z,19.13
2018-04-20T05:10:48.550Z,19.04
2018-04-20T05:11:29.017Z,19.02
2018-04-20T05:12:09.546Z,19.04
2018-04-20T05:12:50.052Z,19.06
2018-04-20T05:13:30.575Z,19.04
2018-04-20T05:14:11.109Z,19.16
2018-04-20T05:14:51.611Z,19.19
2018-04-20T05:15:32.156Z,19.18
2018-04-20T05:16:12.673Z,19.06
2018-04-20T05:16:53.200Z,19.16
2018-04-20T05:17:33.756Z,19.16
2018-04-20T05:18:14.240Z,19.16
2018-04-20T05:18:54.785Z,19.25
2018-04-20T05:19:35.274Z,19.25
2018-04-20T05:20:15.826Z,19.22
2018-04-20T05:20:56.362Z,19.23
2018-04-20T05:21:36.890Z,19.28
2018-04-20T05:22:17.408Z,19.37
2018-04-20T05:22:57.940Z,19.21
2018-04-20T05:23:38.457Z,19.22
2018-04-20T05:24:18.976Z,19.33
2018-04-20T05:24:59.504Z,19.4
2018-04-20T05:25:39.971Z,19.4
2018-04-20T05:26:20.483Z,19.33
2018-04-20T05:27:00.989Z,19.4
2018-04-20T05:27:41.444Z,19.47
2018-04-20T05:28:21.932Z,19.48
2018-04-20T05:29:02.426Z,19.51
2018-04-20T05:29:43.037Z,19.47
2018-04-20T05:32:48.265Z,19.61
2018-04-20T05:33:32.150Z,19.63
2018-04-20T05:34:11.707Z,19.69
2018-04-20T05:34:52.196Z,19.61
2018-04-20T05:35:32.847Z,19.63
2018-04-20T05:36:13.349Z,19.61
2018-04-20T05:36:53.863Z,19.63
2018-04-20T05:37:34.527Z,19.77
2018-04-20T05:38:15.074Z,19.66
2018-04-20T05:38:55.515Z,19.74
2018-04-20T05:39:36.034Z,19.63
2018-04-20T05:40:16.553Z,19.76
2018-04-20T05:40:57.039Z,19.71
2018-04-20T05:41:37.564Z,19.87
2018-04-20T05:42:18.273Z,19.91
2018-04-20T05:42:58.776Z,19.94
2018-04-20T05:43:39.743Z,19.91
2018-04-20T05:44:20.239Z,19.91
2018-04-20T05:45:00.740Z,19.88
2018-04-20T05:45:41.287Z,19.92
2018-04-20T05:46:21.785Z,19.94
2018-04-20T05:47:02.249Z,19.99
2018-04-20T05:47:42.789Z,20.01
2018-04-20T05:48:23.330Z,20.03
2018-04-20T05:49:03.847Z,20.06
2018-04-20T05:49:44.292Z,20.1
2018-04-20T05:50:24.769Z,20.16
2018-04-20T05:51:05.287Z,20.24
2018-04-20T05:51:45.811Z,20.16
2018-04-20T05:52:26.337Z,20.24
2018-04-20T05:53:06.908Z,20.05
2018-04-20T05:53:47.694Z,20.08
2018-04-20T05:54:28.009Z,20.06
2018-04-20T05:55:08.554Z,20.08
2018-04-20T05:55:49.084Z,20.16
2018-04-20T05:57:11.356Z,20.08
2018-04-20T05:57:51.823Z,20.1
2018-04-20T06:03:42.964Z,20.36
2018-04-20T06:04:23.499Z,20.39
2018-04-20T06:05:04.068Z,20.42
2018-04-20T06:05:44.542Z,20.42
2018-04-20T06:06:25.774Z,20.42
2018-04-20T06:07:09.299Z,20.51
2018-04-20T06:07:49.880Z,20.41
2018-04-20T06:10:54.288Z,20.57
2018-04-20T06:11:35.297Z,20.59
2018-04-20T06:12:15.825Z,20.52
2018-04-20T06:12:56.364Z,20.72
2018-04-20T06:13:36.903Z,20.61
2018-04-20T06:14:17.421Z,20.74
2018-04-20T06:14:57.988Z,20.67
2018-04-20T06:15:38.489Z,20.67
2018-04-20T06:16:19.010Z,20.72
2018-04-20T06:16:59.541Z,20.8
2018-04-20T06:17:40.064Z,20.73
2018-04-20T06:18:20.587Z,20.82
2018-04-20T06:19:01.139Z,20.87
2018-04-20T06:19:41.665Z,20.87
2018-04-20T06:20:22.184Z,20.94
2018-04-20T06:21:02.734Z,20.77
2018-04-20T06:21:43.448Z,20.82
2018-04-20T06:22:23.996Z,20.99
2018-04-20T06:23:04.510Z,20.98
2018-04-20T06:23:45.008Z,21.03
2018-04-20T06:24:25.553Z,20.94
2018-04-20T06:25:06.040Z,20.97
2018-04-20T06:25:46.585Z,21.06
2018-04-20T06:26:27.088Z,21.06
2018-04-20T06:27:07.608Z,21.1
2018-04-20T06:27:48.152Z,21.06
2018-04-20T06:28:28.698Z,21.16
2018-04-20T06:29:09.243Z,21.24
2018-04-20T06:29:49.745Z,21.13
2018-04-20T06:30:30.315Z,21.16
2018-04-20T06:31:11.055Z,21.09
2018-04-20T06:31:51.407Z,21.17
2018-04-20T06:32:31.996Z,21.16
2018-04-20T06:33:12.541Z,21.14
2018-04-20T06:33:53.063Z,21.17
2018-04-20T06:34:33.556Z,21.14
2018-04-20T06:35:14.100Z,21.22
2018-04-20T06:35:54.576Z,21.22
2018-04-20T06:36:35.098Z,21.27
2018-04-20T06:37:15.635Z,21.12
2018-04-20T06:37:56.619Z,21.19
2018-04-20T06:38:37.145Z,21.19
2018-04-20T06:39:17.674Z,21.13
2018-04-20T06:39:58.192Z,21.16
2018-04-20T06:40:38.708Z,21.12
2018-04-20T06:41:19.253Z,21.12
2018-04-20T06:41:59.783Z,21.22
2018-04-20T06:42:40.282Z,21.31
2018-04-20T06:43:20.791Z,21.27
2018-04-20T06:44:01.333Z,21.35
2018-04-20T06:44:41.873Z,21.25
2018-04-20T06:45:22.396Z,21.44
2018-04-20T06:46:02.906Z,21.47
2018-04-20T06:46:43.439Z,21.62
2018-04-20T06:47:23.939Z,21.69
2018-04-20T06:48:04.481Z,21.65
2018-04-20T06:48:45.115Z,21.58
2018-04-20T06:49:25.623Z,21.65
2018-04-20T06:50:06.146Z,21.64
2018-04-20T06:50:46.695Z,21.74
2018-04-20T06:51:27.176Z,21.74
2018-04-20T06:52:07.723Z,21.72
2018-04-20T06:52:48.235Z,21.8
2018-04-20T06:53:28.760Z,21.98
2018-04-20T06:54:09.299Z,21.92
2018-04-20T06:54:49.819Z,21.96
2018-04-20T06:55:30.339Z,22.05
2018-04-20T06:56:10.877Z,22.06
2018-04-20T06:56:51.444Z,21.99
2018-04-20T06:57:31.916Z,21.94
2018-04-20T06:58:12.451Z,21.98
2018-04-20T06:58:53.004Z,21.94
2018-04-20T06:59:33.547Z,22.02
2018-04-20T07:00:14.075Z,22.02
2018-04-20T07:00:54.594Z,21.99
2018-04-20T07:01:35.180Z,22.05
2018-04-20T07:02:15.625Z,22
2018-04-20T07:02:56.142Z,22.05
2018-04-20T07:03:36.653Z,22.02
2018-04-20T07:04:17.202Z,22.09
2018-04-20T07:04:57.752Z,22.15
2018-04-20T07:05:38.213Z,22.22
2018-04-20T07:06:18.728Z,22.3
2018-04-20T07:06:59.247Z,22.4
2018-04-20T07:07:39.789Z,22.55
2018-04-20T07:08:20.280Z,22.54
2018-04-20T07:09:00.784Z,22.58
2018-04-20T07:09:41.292Z,22.57
2018-04-20T07:10:21.827Z,22.64
2018-04-20T07:11:02.478Z,22.6
2018-04-20T07:11:43.663Z,22.73
2018-04-20T07:12:24.162Z,22.73
2018-04-20T07:13:04.715Z,22.75
2018-04-20T07:13:45.222Z,22.88
2018-04-20T07:14:25.736Z,23.04
2018-04-20T07:15:06.225Z,22.94
2018-04-20T07:15:46.747Z,23
2018-04-20T07:16:27.270Z,22.94
2018-04-20T07:17:07.731Z,22.92
2018-04-20T07:17:48.220Z,23
2018-04-20T07:18:28.741Z,22.91
2018-04-20T07:19:09.421Z,22.91
2018-04-20T07:19:49.899Z,22.76
2018-04-20T07:20:30.452Z,22.85
2018-04-20T07:21:10.884Z,22.91
2018-04-20T07:21:51.374Z,22.97
2018-04-20T07:22:31.908Z,23
2018-04-20T07:23:12.472Z,22.94
2018-04-20T07:23:52.952Z,22.98
2018-04-20T07:24:33.441Z,23
2018-04-20T07:25:13.955Z,22.97
2018-04-20T07:25:54.497Z,23
2018-04-20T07:26:35.022Z,22.98
2018-04-20T07:27:15.526Z,22.94
2018-04-20T07:27:56.045Z,23.09
2018-04-20T07:28:36.569Z,23.07
2018-04-20T07:29:17.105Z,23.15
2018-04-20T07:29:57.630Z,23.17
2018-04-20T07:30:38.154Z,23.01
2018-04-20T07:31:18.675Z,23.16
2018-04-20T07:31:59.245Z,23.15
2018-04-20T07:32:39.787Z,23.15
2018-04-20T07:33:20.288Z,23.17
2018-04-20T07:34:00.911Z,23.13
2018-04-20T07:34:41.427Z,23.19
2018-04-20T07:35:21.958Z,23.16
2018-04-20T07:36:02.485Z,23.02
2018-04-20T07:36:43.022Z,22.92
2018-04-20T07:37:23.531Z,22.94
2018-04-20T07:38:04.061Z,23.12
2018-04-20T07:38:44.593Z,23.01
2018-04-20T07:39:25.108Z,22.97
2018-04-20T07:40:05.628Z,23.02
2018-04-20T07:40:46.156Z,23.15
2018-04-20T07:41:26.723Z,23.15
2018-04-20T07:42:07.226Z,23.13
2018-04-20T07:42:47.739Z,23.13
2018-04-20T07:43:28.249Z,23.15
2018-04-20T07:44:08.905Z,23.23
2018-04-20T07:46:00.719Z,23.33
2018-04-20T07:46:41.268Z,23.33
2018-04-20T07:47:21.796Z,23.35
2018-04-20T07:48:02.329Z,23.42
2018-04-20T07:48:42.847Z,23.5
2018-04-20T07:49:23.354Z,23.5
2018-04-20T07:50:03.922Z,23.48
2018-04-20T07:50:44.434Z,23.5
2018-04-20T07:51:24.950Z,23.39
2018-04-20T07:52:05.498Z,23.4
2018-04-20T07:52:46.020Z,23.33
2018-04-20T07:53:26.532Z,23.48
2018-04-20T07:54:07.055Z,23.4
2018-04-20T07:54:47.575Z,23.35
2018-04-20T07:55:28.114Z,23.36
2018-04-20T07:56:08.603Z,23.33
2018-04-20T07:56:49.113Z,23.31
2018-04-20T07:57:29.649Z,23.39
2018-04-20T07:58:10.155Z,23.42
2018-04-20T07:58:50.685Z,23.47
2018-04-20T07:59:31.207Z,23.47
2018-04-20T08:00:11.739Z,23.39
2018-04-20T08:00:52.274Z,23.46
2018-04-20T08:01:32.821Z,23.4
2018-04-20T08:02:13.340Z,23.51
2018-04-20T08:02:53.865Z,23.38
2018-04-20T08:03:34.398Z,23.39
2018-04-20T08:04:14.912Z,23.48
2018-04-20T08:04:55.438Z,23.5
2018-04-20T08:05:36.089Z,23.46
2018-04-20T08:06:16.545Z,23.36
2018-04-20T08:06:57.071Z,23.42
2018-04-20T08:07:37.608Z,23.4
2018-04-20T08:08:18.127Z,23.5
2018-04-20T08:08:58.628Z,23.33
2018-04-20T08:09:39.151Z,23.46
2018-04-20T08:10:19.676Z,23.33
2018-04-20T08:11:00.199Z,23.31
2018-04-20T08:11:40.718Z,23.35
2018-04-20T08:12:21.231Z,23.23
2018-04-20T08:13:01.758Z,23.2
2018-04-20T08:13:42.289Z,23.2
2018-04-20T08:14:22.808Z,23.28
2018-04-20T08:15:03.344Z,23.39
2018-04-20T08:15:43.874Z,23.42
2018-04-20T08:16:24.378Z,23.4
2018-04-20T08:17:04.937Z,23.38
2018-04-20T08:19:03.137Z,23.38
2018-04-20T08:19:43.669Z,23.4
2018-04-20T08:20:24.188Z,23.36
2018-04-20T08:21:04.736Z,23.47
2018-04-20T08:21:45.264Z,23.51
2018-04-20T08:22:25.902Z,23.65
2018-04-20T08:23:06.408Z,23.57
2018-04-20T08:23:46.931Z,23.58
2018-04-20T08:24:27.451Z,23.69
2018-04-20T08:25:07.961Z,23.72
2018-04-20T08:25:48.509Z,23.6
2018-04-20T08:26:29.030Z,23.72
2018-04-20T08:27:09.559Z,23.73
2018-04-20T08:27:50.095Z,23.8
2018-04-20T08:28:30.610Z,23.8
2018-04-20T08:29:11.127Z,23.9
2018-04-20T08:29:51.635Z,23.97
2018-04-20T08:30:32.156Z,23.85
2018-04-20T08:31:12.691Z,23.94
2018-04-20T08:31:53.202Z,24.03
2018-04-20T08:32:33.729Z,24.02
2018-04-20T08:33:14.250Z,24.05
2018-04-20T08:33:54.752Z,23.93
2018-04-20T08:34:35.269Z,23.97
2018-04-20T08:35:15.806Z,23.7
2018-04-20T08:35:56.352Z,23.85
2018-04-20T08:36:36.879Z,23.85
2018-04-20T08:37:17.413Z,23.83
2018-04-20T08:37:57.922Z,23.7
2018-04-20T08:38:38.458Z,23.7
2018-04-20T08:39:19.287Z,23.87
2018-04-20T08:39:59.830Z,23.85
2018-04-20T08:40:40.356Z,23.98
2018-04-20T08:41:20.873Z,24
2018-04-20T08:42:01.456Z,24.05
2018-04-20T08:42:41.955Z,24.08
2018-04-20T08:43:22.488Z,24.1
2018-04-20T08:44:03.001Z,24.1
2018-04-20T08:44:43.522Z,24.18
2018-04-20T08:45:24.042Z,23.95
2018-04-20T08:46:04.569Z,23.97
2018-04-20T08:46:45.073Z,24
2018-04-20T08:47:25.599Z,24.05
2018-04-20T08:48:06.117Z,24.09
2018-04-20T08:48:46.635Z,24.06
2018-04-20T08:49:27.168Z,24.12
2018-04-20T08:50:07.711Z,24.09
2018-04-20T08:50:48.235Z,24.08
2018-04-20T08:51:28.726Z,24.05
2018-04-20T08:52:09.251Z,24.02
2018-04-20T08:52:49.786Z,24.09
2018-04-20T08:53:30.309Z,24
2018-04-20T08:54:10.831Z,24.05
2018-04-20T08:54:51.350Z,24.06
2018-04-20T08:55:31.881Z,24.03
2018-04-20T08:56:12.420Z,24.03
2018-04-20T08:56:52.919Z,24
2018-04-20T08:57:33.455Z,24.06
2018-04-20T08:58:13.985Z,24.02
2018-04-20T08:58:54.529Z,24.08
2018-04-20T08:59:35.056Z,24.05
2018-04-20T09:00:15.577Z,24.1
2018-04-20T09:00:56.086Z,24.16
2018-04-20T09:01:36.676Z,24.27
2018-04-20T09:02:17.213Z,24.13
2018-04-20T09:02:57.686Z,24.18
2018-04-20T09:03:38.200Z,24.16
2018-04-20T09:04:18.748Z,24.12
2018-04-20T09:04:59.295Z,24.2
2018-04-20T09:05:39.869Z,24.25
2018-04-20T09:06:20.393Z,24.31
2018-04-20T09:07:00.919Z,24.34
2018-04-20T09:07:41.436Z,24.28
2018-04-20T09:08:21.968Z,24.31
2018-04-20T09:09:02.491Z,24.2
2018-04-20T09:09:43.026Z,24.28
2018-04-20T09:10:23.537Z,24.2
2018-04-20T09:11:04.069Z,24.31
2018-04-20T09:11:44.598Z,24.22
2018-04-20T09:12:25.140Z,24.27
2018-04-20T09:13:05.650Z,24.35
2018-04-20T09:13:46.178Z,24.3
2018-04-20T09:14:26.704Z,24.28
2018-04-20T09:15:07.227Z,24.31
2018-04-20T09:15:47.743Z,24.28
2018-04-20T09:16:28.253Z,24.31
2018-04-20T09:17:08.792Z,24.3
2018-04-20T09:17:49.328Z,24.13
2018-04-20T09:18:29.911Z,24.18
2018-04-20T09:19:10.377Z,24.18
2018-04-20T09:19:50.958Z,24.32
2018-04-20T09:20:31.481Z,24.28
2018-04-20T09:21:12.010Z,24.37
2018-04-20T09:21:52.523Z,24.34
2018-04-20T09:22:33.045Z,24.25
2018-04-20T09:23:13.564Z,24.16
2018-04-20T09:23:54.102Z,24.12
2018-04-20T09:24:34.602Z,24.09
2018-04-20T09:25:15.100Z,24.21
2018-04-20T09:25:55.622Z,24.3
2018-04-20T09:26:36.158Z,24.27
2018-04-20T09:27:16.687Z,24.32
2018-04-20T09:27:57.198Z,24.3
2018-04-20T09:28:37.716Z,24.31
2018-04-20T09:29:18.255Z,24.22
2018-04-20T09:29:58.771Z,24.18
2018-04-20T09:30:39.372Z,24.25
2018-04-20T09:31:19.765Z,24.27
2018-04-20T09:32:00.253Z,24.32
2018-04-20T09:32:40.750Z,24.34
2018-04-20T09:33:21.302Z,24.37
2018-04-20T09:34:01.771Z,24.42
2018-04-20T09:34:42.383Z,24.43
2018-04-20T09:36:35.488Z,24.5
2018-04-20T09:37:16.006Z,24.55
2018-04-20T09:37:56.522Z,24.57
2018-04-20T09:38:37.057Z,24.52
2018-04-20T09:39:17.582Z,24.52
2018-04-20T09:39:58.118Z,24.53
2018-04-20T09:40:38.650Z,24.57
2018-04-20T09:41:19.179Z,24.46
2018-04-20T09:41:59.708Z,24.4
2018-04-20T09:42:40.239Z,24.34
2018-04-20T09:43:20.756Z,24.3
2018-04-20T09:44:01.302Z,24.25
2018-04-20T09:44:41.834Z,24.25
2018-04-20T09:45:22.347Z,24.35
2018-04-20T09:46:02.883Z,24.39
2018-04-20T09:46:43.417Z,24.45
2018-04-20T09:47:23.986Z,24.5
2018-04-20T09:48:04.476Z,24.49
2018-04-20T09:48:45.022Z,24.6
2018-04-20T09:49:25.532Z,24.52
2018-04-20T09:50:06.060Z,24.46
2018-04-20T09:50:46.573Z,24.47
2018-04-20T09:51:27.189Z,24.4
2018-04-20T09:52:07.734Z,24.42
2018-04-20T09:52:48.235Z,24.47
2018-04-20T09:53:28.774Z,24.35
2018-04-20T09:54:09.282Z,24.43
2018-04-20T09:54:49.808Z,24.37
2018-04-20T09:55:30.330Z,24.46
2018-04-20T09:56:10.861Z,24.53
2018-04-20T09:56:51.380Z,24.65
2018-04-20T09:57:31.901Z,24.64
2018-04-20T09:58:12.437Z,24.68
2018-04-20T09:58:52.942Z,24.65
2018-04-20T09:59:33.454Z,24.67
2018-04-20T10:00:13.988Z,24.61
2018-04-20T10:00:54.586Z,24.68
2018-04-20T10:01:35.124Z,24.62
2018-04-20T10:02:15.678Z,24.71
2018-04-20T10:02:56.191Z,24.47
2018-04-20T10:03:36.711Z,24.57
2018-04-20T10:04:17.239Z,24.5
2018-04-20T10:04:57.769Z,24.55
2018-04-20T10:05:38.305Z,24.49
2018-04-20T10:06:18.808Z,24.53
2018-04-20T10:06:59.347Z,24.55
2018-04-20T10:07:39.851Z,24.68
2018-04-20T10:08:20.362Z,24.73
2018-04-20T10:09:00.906Z,24.65
2018-04-20T10:09:41.442Z,24.65
2018-04-20T10:10:21.944Z,24.53
2018-04-20T10:11:02.504Z,24.6
2018-04-20T10:11:43.030Z,24.57
2018-04-20T10:12:23.594Z,24.61
2018-04-20T10:13:04.125Z,24.5
2018-04-20T10:13:44.653Z,24.58
2018-04-20T10:14:25.188Z,24.55
2018-04-20T10:15:05.709Z,24.35
2018-04-20T10:15:46.246Z,24.37
2018-04-20T10:16:26.767Z,24.47
2018-04-20T10:17:07.284Z,24.52
2018-04-20T10:17:47.824Z,24.67
2018-04-20T10:18:28.329Z,24.67
2018-04-20T10:19:08.907Z,24.65
2018-04-20T10:19:49.387Z,24.55
2018-04-20T10:20:29.909Z,24.65
2018-04-20T10:21:10.437Z,24.68
2018-04-20T10:21:50.954Z,24.67
2018-04-20T10:22:31.476Z,24.68
2018-04-20T10:23:11.985Z,24.43
2018-04-20T10:23:52.632Z,24.32
2018-04-20T10:24:33.146Z,24.3
2018-04-20T10:25:13.677Z,24.28
2018-04-20T10:25:54.198Z,24.31
2018-04-20T10:26:34.691Z,24.32
2018-04-20T10:27:15.184Z,24.47
2018-04-20T10:27:55.719Z,24.45
2018-04-20T10:28:36.198Z,24.47
2018-04-20T10:29:16.687Z,24.55
2018-04-20T10:29:57.200Z,24.73
2018-04-20T10:30:37.702Z,24.83
2018-04-20T10:31:18.201Z,24.77
2018-04-20T10:31:59.217Z,24.8
2018-04-20T10:32:39.194Z,24.81
2018-04-20T10:33:19.717Z,24.83
2018-04-20T10:34:00.236Z,24.83
2018-04-20T10:34:40.748Z,24.68
2018-04-20T10:35:21.276Z,24.73
2018-04-20T10:36:01.798Z,24.76
2018-04-20T10:36:42.330Z,24.81
2018-04-20T10:37:22.858Z,24.78
2018-04-20T10:38:03.370Z,24.87
2018-04-20T10:38:43.882Z,25.02
2018-04-20T10:39:24.393Z,24.95
2018-04-20T10:40:04.915Z,24.95
2018-04-20T10:40:45.416Z,24.78
2018-04-20T10:41:25.946Z,24.81
2018-04-20T10:42:06.463Z,24.81
2018-04-20T10:42:47.004Z,24.78
2018-04-20T10:43:27.533Z,24.77
2018-04-20T10:44:08.056Z,24.8
2018-04-20T10:44:48.597Z,24.9
2018-04-20T10:45:29.127Z,24.9
2018-04-20T10:46:09.648Z,24.98
2018-04-20T10:46:50.213Z,25.02
2018-04-20T10:47:30.798Z,25.06
2018-04-20T10:48:11.257Z,25.05
2018-04-20T10:48:51.782Z,25.09
2018-04-20T10:49:32.287Z,25.08
2018-04-20T10:50:12.821Z,25.03
2018-04-20T10:50:53.364Z,25
2018-04-20T10:51:33.907Z,25.03
2018-04-20T10:52:14.427Z,24.96
2018-04-20T10:52:54.951Z,24.98
2018-04-20T10:53:35.475Z,24.99
2018-04-20T10:54:15.975Z,24.93
2018-04-20T10:54:56.497Z,25.13
2018-04-20T10:55:37.029Z,25.17
2018-04-20T10:56:17.562Z,25.15
2018-04-20T10:56:58.091Z,25.33
2018-04-20T10:57:38.596Z,25.35
2018-04-20T10:58:19.104Z,25.42
2018-04-20T10:58:59.625Z,25.42
2018-04-20T10:59:40.141Z,25.46
2018-04-20T11:00:20.675Z,25.35
2018-04-20T11:01:01.200Z,25.33
2018-04-20T11:01:41.727Z,25.36
2018-04-20T11:02:22.247Z,25.2
2018-04-20T11:03:02.756Z,25.18
2018-04-20T11:03:43.306Z,25.2
2018-04-20T11:04:23.880Z,25.23
2018-04-20T11:05:04.362Z,25.24
2018-04-20T11:05:44.908Z,25.33
2018-04-20T11:06:25.703Z,25.3
2018-04-20T11:07:06.190Z,25.4
2018-04-20T11:07:46.916Z,25.43
2018-04-20T11:08:27.240Z,25.52
2018-04-20T11:09:07.759Z,25.51
2018-04-20T11:09:48.244Z,25.55
2018-04-20T11:10:28.742Z,25.57
2018-04-20T11:11:09.265Z,25.54
2018-04-20T11:11:49.812Z,25.52
2018-04-20T11:12:30.336Z,25.54
2018-04-20T11:13:10.872Z,25.4
2018-04-20T11:13:51.350Z,25.42
2018-04-20T11:14:31.874Z,25.35
2018-04-20T11:15:12.364Z,25.36
2018-04-20T11:15:52.834Z,25.33
2018-04-20T11:16:33.347Z,25.32
2018-04-20T11:17:13.835Z,25.2
2018-04-20T11:17:54.375Z,25.3
2018-04-20T11:18:34.907Z,25.35
2018-04-20T11:19:15.441Z,25.35
2018-04-20T11:19:55.998Z,25.47
2018-04-20T11:20:36.507Z,25.51
2018-04-20T11:21:17.022Z,25.54
2018-04-20T11:21:57.529Z,25.47
2018-04-20T11:22:38.062Z,25.46
2018-04-20T11:23:18.618Z,25.39
2018-04-20T11:23:59.076Z,25.51
2018-04-20T11:24:39.609Z,25.38
2018-04-20T11:25:20.207Z,25.42
2018-04-20T11:26:00.723Z,25.43
2018-04-20T11:26:41.269Z,25.5
2018-04-20T11:27:21.785Z,25.54
2018-04-20T11:28:02.360Z,25.57
2018-04-20T11:28:42.903Z,25.6
2018-04-20T11:29:23.442Z,25.62
2018-04-20T11:30:03.962Z,25.79
2018-04-20T11:30:44.504Z,25.77
2018-04-20T11:31:25.015Z,25.75
2018-04-20T11:32:05.500Z,25.75
2018-04-20T11:32:46.020Z,25.76
2018-04-20T11:33:26.537Z,25.79
2018-04-20T11:34:07.067Z,25.79
2018-04-20T11:34:47.605Z,25.82
2018-04-20T11:35:28.125Z,25.79
2018-04-20T11:36:08.653Z,25.9
2018-04-20T11:36:49.182Z,25.88
2018-04-20T11:37:29.735Z,25.76
2018-04-20T11:38:10.278Z,25.92
2018-04-20T11:38:50.789Z,25.85
2018-04-20T11:39:31.320Z,25.85
2018-04-20T11:40:11.847Z,25.94
2018-04-20T11:40:52.386Z,25.94
2018-04-20T11:41:32.904Z,25.97
2018-04-20T11:42:13.429Z,25.92
2018-04-20T11:42:53.981Z,25.97
2018-04-20T11:43:34.504Z,25.97
2018-04-20T11:44:15.017Z,25.92
2018-04-20T11:44:55.567Z,25.99
2018-04-20T11:45:36.090Z,25.91
2018-04-20T11:46:16.628Z,25.92
2018-04-20T11:46:57.160Z,25.92
2018-04-20T11:47:37.691Z,25.97
2018-04-20T11:48:18.221Z,25.94
2018-04-20T11:48:58.728Z,26.01
2018-04-20T11:49:39.226Z,26.01
2018-04-20T11:50:19.785Z,25.94
2018-04-20T11:51:00.279Z,25.97
2018-04-20T11:51:40.810Z,25.92
2018-04-20T11:52:21.342Z,25.82
2018-04-20T11:53:01.817Z,25.92
2018-04-20T11:53:42.354Z,25.75
2018-04-20T11:54:22.829Z,25.75
2018-04-20T11:55:03.322Z,25.77
2018-04-20T11:55:43.880Z,25.75
2018-04-20T11:56:24.324Z,25.64
2018-04-20T11:57:04.886Z,25.7
2018-04-20T11:57:45.371Z,25.69
2018-04-20T11:58:26.157Z,25.67
2018-04-20T11:59:06.937Z,25.77
2018-04-20T11:59:47.272Z,25.76
2018-04-20T12:00:27.826Z,25.72
2018-04-20T12:01:08.274Z,25.7
2018-04-20T12:01:48.795Z,25.76
2018-04-20T12:02:29.265Z,25.8
2018-04-20T12:03:09.741Z,25.75
2018-04-20T12:03:50.221Z,25.83
2018-04-20T12:04:30.733Z,25.75
2018-04-20T12:05:11.193Z,25.87
2018-04-20T12:05:51.726Z,25.83
2018-04-20T12:06:32.300Z,25.8
2018-04-20T12:07:12.777Z,25.92
2018-04-20T12:07:53.229Z,25.88
2018-04-20T12:08:33.738Z,25.88
2018-04-20T12:09:14.227Z,25.85
2018-04-20T12:09:54.712Z,25.73
2018-04-20T12:10:35.252Z,25.65
2018-04-20T12:11:15.788Z,25.64
2018-04-20T12:11:56.244Z,25.75
2018-04-20T12:12:36.748Z,25.67
2018-04-20T12:13:17.281Z,25.75
2018-04-20T12:13:57.773Z,25.72
2018-04-20T12:14:38.283Z,25.67
2018-04-20T12:15:18.738Z,25.75
2018-04-20T12:15:59.251Z,25.79
2018-04-20T12:16:39.751Z,25.75
2018-04-20T12:17:20.253Z,25.67
2018-04-20T12:18:00.739Z,25.75
2018-04-20T12:18:41.190Z,25.72
2018-04-20T12:19:21.736Z,25.76
2018-04-20T12:20:02.162Z,25.76
2018-04-20T12:20:42.690Z,25.79
2018-04-20T12:21:23.184Z,25.79
2018-04-20T12:22:03.663Z,25.79
2018-04-20T12:22:44.159Z,25.76
2018-04-20T12:23:24.683Z,25.77
2018-04-20T12:24:05.189Z,25.77
2018-04-20T12:24:45.700Z,25.77